Time;durP1;ratioP1;P1;durP2;ratioP2;P2;SDS_P1;SDS_P2;PMS_P1;PMS_P2;Temp;Humidity;BMP_temperature;BMP_pressure;BME280_temperature;BME280_humidity;BME280_pressure;Samples;Min_cycle;Max_cycle;Signal;HPM_P1;HPM_P2
2023/04/04 00:01:00;;;;;;;2.70;2.50;;;3.30;99.90;;;;;;5066657;28;20455;-70
2023/04/04 00:03:26;;;;;;;2.70;2.50;;;3.20;99.90;;;;;;5066915;28;20229;-69
2023/04/04 00:05:51;;;;;;;2.53;2.33;;;3.20;99.90;;;;;;5066547;28;20447;-70
2023/04/04 00:08:17;;;;;;;2.70;2.50;;;3.20;99.90;;;;;;5066496;28;20972;-69
2023/04/04 00:10:42;;;;;;;4.23;2.33;;;3.10;99.90;;;;;;5066640;28;20645;-70
2023/04/04 00:13:10;;;;;;;2.57;2.33;;;3.10;99.90;;;;;;5066029;28;20205;-70
2023/04/04 00:15:35;;;;;;;2.33;2.13;;;3.10;99.90;;;;;;5066173;28;20181;-70
2023/04/04 00:18:04;;;;;;;4.40;3.33;;;3.10;99.90;;;;;;5048078;28;20415;-70
2023/04/04 00:20:30;;;;;;;3.63;3.33;;;3.00;99.90;;;;;;5048050;28;20204;-69
2023/04/04 00:22:56;;;;;;;3.73;2.60;;;2.90;99.90;;;;;;5066444;28;20958;-70
2023/04/04 00:25:22;;;;;;;3.50;3.20;;;2.90;99.90;;;;;;5066286;28;20183;-69
2023/04/04 00:27:48;;;;;;;4.60;2.80;;;2.90;99.90;;;;;;5066181;28;20412;-70
2023/04/04 00:30:14;;;;;;;3.57;2.70;;;2.80;99.90;;;;;;5065672;28;20470;-69
2023/04/04 00:32:39;;;;;;;3.20;2.63;;;2.80;99.90;;;;;;5065673;28;20255;-69
2023/04/04 00:35:05;;;;;;;2.43;2.23;;;2.70;99.90;;;;;;5065916;28;20426;-69
2023/04/04 00:37:31;;;;;;;4.70;2.50;;;2.70;99.90;;;;;;5065674;28;20185;-70
2023/04/04 00:39:57;;;;;;;6.23;3.27;;;2.70;99.90;;;;;;5065791;28;21025;-70
2023/04/04 00:42:22;;;;;;;4.57;3.17;;;2.60;99.90;;;;;;5065440;28;20491;-70
2023/04/04 00:44:50;;;;;;;4.50;2.97;;;2.50;99.90;;;;;;5047578;28;20665;-70
2023/04/04 00:47:15;;;;;;;2.93;2.63;;;2.40;99.90;;;;;;5065704;28;20187;-70
2023/04/04 00:49:41;;;;;;;3.00;2.80;;;2.30;99.90;;;;;;5065483;28;20831;-69
2023/04/04 00:52:06;;;;;;;3.33;3.03;;;2.30;99.90;;;;;;5065409;28;20275;-70
2023/04/04 00:54:33;;;;;;;4.57;3.10;;;2.40;99.90;;;;;;5047477;28;20306;-69
2023/04/04 00:57:00;;;;;;;7.77;3.60;;;2.30;99.90;;;;;;5065205;28;20233;-69
2023/04/04 00:59:27;;;;;;;3.20;2.90;;;2.40;99.90;;;;;;5064952;28;20459;-70
2023/04/04 01:01:53;;;;;;;5.40;2.80;;;2.30;99.90;;;;;;5047125;28;21453;-69
2023/04/04 01:04:19;;;;;;;2.73;2.53;;;2.30;99.90;;;;;;5065404;28;20446;-69
2023/04/04 01:06:45;;;;;;;2.73;2.53;;;2.30;99.90;;;;;;5065116;28;20425;-69
2023/04/04 01:09:11;;;;;;;2.90;2.70;;;2.40;99.90;;;;;;5065261;28;20195;-69
2023/04/04 01:11:37;;;;;;;4.13;3.00;;;2.30;99.90;;;;;;5065267;28;20207;-69
2023/04/04 01:14:03;;;;;;;3.63;3.30;;;2.30;99.90;;;;;;5065101;28;20684;-69
2023/04/04 01:16:29;;;;;;;3.13;2.90;;;2.20;99.90;;;;;;5065263;28;20453;-70
2023/04/04 01:18:55;;;;;;;3.33;2.80;;;2.20;99.90;;;;;;5065141;28;20184;-68
2023/04/04 01:21:22;;;;;;;3.80;3.37;;;2.30;99.90;;;;;;5047114;28;20291;-70
2023/04/04 01:24:02;;;;;;;3.60;2.97;;;2.30;99.90;;;;;;5064869;28;20435;-70
2023/04/04 01:26:28;;;;;;;4.20;3.20;;;2.30;99.90;;;;;;5064939;28;20402;-70
2023/04/04 01:28:55;;;;;;;3.20;2.90;;;2.30;99.90;;;;;;5064544;28;20437;-70
2023/04/04 01:33:54;;;;;;;4.40;3.27;;;2.20;99.90;;;;;;5101696;22;20496;-72
2023/04/04 01:36:30;;;;;;;5.00;2.90;;;2.30;99.90;;;;;;5066503;28;20219;-71
2023/04/04 01:39:12;;;;;;;3.37;2.87;;;2.20;99.90;;;;;;5084261;28;20403;-71
2023/04/04 01:41:38;;;;;;;3.50;2.77;;;2.30;99.90;;;;;;5081825;28;20472;-71
2023/04/04 01:44:04;;;;;;;3.70;3.33;;;2.20;99.90;;;;;;5063684;28;20414;-72
2023/04/04 01:46:30;;;;;;;3.70;2.90;;;2.10;99.90;;;;;;5064206;28;20840;-71
2023/04/04 01:48:55;;;;;;;4.90;2.90;;;2.10;99.90;;;;;;5064189;28;20937;-71
2023/04/04 01:51:22;;;;;;;4.00;3.60;;;2.10;99.90;;;;;;5064203;28;20566;-71
2023/04/04 01:53:48;;;;;;;4.37;3.33;;;2.10;99.90;;;;;;5063827;28;20203;-71
2023/04/04 01:56:13;;;;;;;4.20;2.90;;;2.10;99.90;;;;;;5064360;28;20679;-71
2023/04/04 01:58:39;;;;;;;3.60;3.30;;;2.00;99.90;;;;;;5063812;28;20172;-71
2023/04/04 02:01:05;;;;;;;3.77;3.47;;;2.00;99.90;;;;;;5063641;28;20219;-70
2023/04/04 02:03:31;;;;;;;3.63;3.33;;;2.00;99.90;;;;;;5064025;28;20235;-71
2023/04/04 02:05:56;;;;;;;3.83;3.43;;;1.90;99.90;;;;;;5064079;28;20441;-71
2023/04/04 02:08:22;;;;;;;4.17;3.43;;;1.90;99.90;;;;;;5064064;28;20175;-71
2023/04/04 02:10:48;;;;;;;3.20;2.90;;;1.90;99.90;;;;;;5063983;28;20621;-72
2023/04/04 02:13:13;;;;;;;3.97;3.57;;;1.90;99.90;;;;;;5064146;28;20945;-71
2023/04/04 02:15:39;;;;;;;4.37;3.97;;;1.90;99.90;;;;;;5063499;28;20263;-72
2023/04/04 02:18:04;;;;;;;7.00;3.87;;;1.90;99.90;;;;;;5063708;28;20203;-70
2023/04/04 02:20:30;;;;;;;4.00;3.60;;;1.90;99.90;;;;;;5062817;28;20245;-71
2023/04/04 02:22:56;;;;;;;5.80;3.57;;;1.80;99.90;;;;;;5063484;28;20195;-71
2023/04/04 02:25:23;;;;;;;3.97;3.07;;;1.90;99.90;;;;;;5063482;28;20267;-71
2023/04/04 02:27:49;;;;;;;3.70;3.40;;;1.90;99.90;;;;;;5063706;28;20912;-72
2023/04/04 02:30:15;;;;;;;3.23;2.80;;;1.90;99.90;;;;;;5063227;28;20422;-71
2023/04/04 02:32:41;;;;;;;4.93;3.60;;;1.90;99.90;;;;;;5063187;28;20417;-71
2023/04/04 02:35:07;;;;;;;3.17;2.93;;;1.90;99.90;;;;;;5063509;28;20656;-70
2023/04/04 02:37:32;;;;;;;4.00;2.93;;;1.90;99.90;;;;;;5063238;28;20471;-71
2023/04/04 02:39:58;;;;;;;5.30;4.00;;;1.90;99.90;;;;;;5063415;28;20278;-70
2023/04/04 02:42:24;;;;;;;4.27;3.87;;;1.90;99.90;;;;;;5062972;28;20205;-71
2023/04/04 02:44:49;;;;;;;4.13;3.73;;;1.80;99.90;;;;;;5063119;28;20644;-70
2023/04/04 02:47:15;;;;;;;6.60;4.10;;;1.90;99.90;;;;;;5063706;28;20176;-71
2023/04/04 02:49:41;;;;;;;3.70;3.27;;;1.80;99.90;;;;;;5063442;28;20201;-71
2023/04/04 02:52:07;;;;;;;3.97;3.47;;;1.80;99.90;;;;;;5063418;28;20800;-71
2023/04/04 02:54:33;;;;;;;3.37;3.07;;;1.70;99.90;;;;;;5063173;28;20183;-71
2023/04/04 02:56:58;;;;;;;3.90;3.60;;;1.80;99.90;;;;;;5062470;28;20883;-71
2023/04/04 02:59:24;;;;;;;4.37;3.30;;;1.90;99.90;;;;;;5062616;28;20188;-72
2023/04/04 03:01:50;;;;;;;4.60;3.77;;;1.80;99.90;;;;;;5063251;28;20583;-71
2023/04/04 03:04:18;;;;;;;4.73;4.10;;;1.80;99.90;;;;;;5062593;28;20496;-71
2023/04/04 03:06:44;;;;;;;4.53;3.77;;;1.70;99.90;;;;;;5063307;28;20217;-71
2023/04/04 03:09:10;;;;;;;5.40;3.60;;;1.70;99.90;;;;;;5062946;28;20410;-71
2023/04/04 03:11:35;;;;;;;5.87;4.43;;;1.60;99.90;;;;;;5062796;28;20420;-71
2023/04/04 03:14:01;;;;;;;8.10;4.10;;;1.60;99.90;;;;;;5062389;28;20241;-71
2023/04/04 03:16:27;;;;;;;5.17;4.70;;;1.70;99.90;;;;;;5062819;28;20236;-72
2023/04/04 03:18:54;;;;;;;6.17;4.40;;;1.60;99.90;;;;;;5062986;28;20207;-71
2023/04/04 03:21:20;;;;;;;5.60;4.23;;;1.60;99.90;;;;;;5063236;28;20454;-70
2023/04/04 03:23:45;;;;;;;5.53;4.10;;;1.70;99.90;;;;;;5062852;28;20887;-70
2023/04/04 03:26:11;;;;;;;4.03;3.67;;;1.70;99.90;;;;;;5063095;28;20181;-71
2023/04/04 03:28:37;;;;;;;5.10;3.83;;;1.70;99.90;;;;;;5062575;28;20305;-71
2023/04/04 03:31:05;;;;;;;4.50;4.07;;;1.70;99.90;;;;;;5062735;28;20182;-71
2023/04/04 03:33:35;;;;;;;4.70;3.93;;;1.70;99.90;;;;;;5065215;28;20824;-71
2023/04/04 03:36:01;;;;;;;5.03;4.17;;;1.70;99.90;;;;;;5066031;28;20418;-70
2023/04/04 03:38:26;;;;;;;4.97;4.57;;;1.60;99.90;;;;;;5048553;28;20803;-71
2023/04/04 03:41:02;;;;;;;4.43;4.00;;;1.60;99.90;;;;;;5055757;28;20206;-71
2023/04/04 03:43:29;;;;;;;4.67;3.90;;;1.60;99.90;;;;;;5066433;28;21578;-70
2023/04/04 03:45:59;;;;;;;4.97;4.57;;;1.50;99.90;;;;;;5066255;28;20431;-71
2023/04/04 03:48:25;;;;;;;6.97;4.20;;;1.40;99.90;;;;;;5065010;28;20497;-69
2023/04/04 03:50:50;;;;;;;4.63;4.17;;;1.40;99.90;;;;;;5066190;28;20980;-70
2023/04/04 03:53:16;;;;;;;5.40;4.60;;;1.40;99.90;;;;;;5048378;28;20295;-70
2023/04/04 03:55:42;;;;;;;4.30;3.93;;;1.40;99.90;;;;;;5067473;28;20199;-71
2023/04/04 03:58:07;;;;;;;4.93;4.43;;;1.40;99.90;;;;;;5066590;28;20420;-71
2023/04/04 04:00:33;;;;;;;4.10;3.80;;;1.40;99.90;;;;;;5047471;28;20682;-73
2023/04/04 04:02:58;;;;;;;6.87;4.83;;;1.40;99.90;;;;;;5066284;28;20205;-69
2023/04/04 04:05:24;;;;;;;5.03;4.10;;;1.40;99.90;;;;;;5066188;28;20183;-71
2023/04/04 04:07:51;;;;;;;5.57;3.73;;;1.40;99.90;;;;;;5066153;28;20175;-70
2023/04/04 04:10:17;;;;;;;5.83;4.47;;;1.40;99.90;;;;;;5058735;28;20183;-71
2023/04/04 04:12:43;;;;;;;4.50;4.10;;;1.40;99.90;;;;;;5065521;28;21361;-70
2023/04/04 04:15:08;;;;;;;8.30;4.50;;;1.40;99.90;;;;;;5065489;28;20188;-70
2023/04/04 04:17:38;;;;;;;4.77;4.37;;;1.40;99.90;;;;;;5047495;28;20186;-71
2023/04/04 04:20:05;;;;;;;4.10;3.70;;;1.30;99.90;;;;;;5065969;28;20229;-71
2023/04/04 04:22:31;;;;;;;6.10;4.20;;;1.40;99.90;;;;;;5065135;28;20498;-70
2023/04/04 04:24:56;;;;;;;4.87;4.33;;;1.40;99.90;;;;;;5065012;28;20405;-70
2023/04/04 04:27:22;;;;;;;5.30;4.03;;;1.40;99.90;;;;;;5065730;28;20270;-71
2023/04/04 04:29:48;;;;;;;4.23;3.83;;;1.30;99.90;;;;;;5065084;28;20175;-70
2023/04/04 04:32:17;;;;;;;5.80;4.53;;;1.20;99.90;;;;;;5065270;28;20453;-70
2023/04/04 04:34:43;;;;;;;5.10;4.10;;;1.20;99.90;;;;;;5057591;28;20232;-71
2023/04/04 04:37:08;;;;;;;3.93;3.50;;;1.20;99.90;;;;;;5065634;28;20805;-70
2023/04/04 04:39:35;;;;;;;4.50;3.97;;;1.20;99.90;;;;;;5065398;28;20452;-70
2023/04/04 04:42:01;;;;;;;8.53;4.03;;;1.10;99.90;;;;;;5066039;28;20204;-71
2023/04/04 04:44:27;;;;;;;4.03;3.73;;;1.00;99.90;;;;;;5064536;28;20497;-70
2023/04/04 04:46:52;;;;;;;4.17;3.77;;;1.00;99.90;;;;;;5065122;28;20689;-70
2023/04/04 04:49:18;;;;;;;3.77;3.43;;;1.10;99.90;;;;;;5064994;28;20182;-71
2023/04/04 04:51:43;;;;;;;4.87;4.23;;;1.10;99.90;;;;;;5067080;28;20285;-71
2023/04/04 04:54:10;;;;;;;5.27;4.87;;;1.00;99.90;;;;;;5058514;28;20244;-71
2023/04/04 04:56:35;;;;;;;3.97;3.67;;;1.00;99.90;;;;;;5064774;28;20255;-71
2023/04/04 04:59:01;;;;;;;5.00;4.60;;;0.90;99.90;;;;;;5063187;28;21431;-71
2023/04/04 05:01:27;;;;;;;4.80;4.23;;;0.90;99.90;;;;;;5065222;28;20453;-70
2023/04/04 05:03:52;;;;;;;4.93;4.43;;;1.00;99.90;;;;;;5065056;28;20418;-70
2023/04/04 05:06:18;;;;;;;5.57;4.00;;;1.00;99.90;;;;;;5052036;28;20183;-70
2023/04/04 05:08:43;;;;;;;3.80;3.50;;;1.10;99.90;;;;;;5064944;28;20240;-70
2023/04/04 05:11:09;;;;;;;5.77;4.60;;;1.00;99.90;;;;;;5064575;28;20427;-70
2023/04/04 05:13:34;;;;;;;4.60;4.17;;;1.00;99.90;;;;;;5064355;28;20205;-70
2023/04/04 05:16:00;;;;;;;4.20;3.90;;;1.00;99.90;;;;;;5064068;28;20178;-71
2023/04/04 05:18:26;;;;;;;4.83;3.60;;;1.00;99.90;;;;;;5064714;28;20261;-70
2023/04/04 05:20:55;;;;;;;4.63;4.23;;;1.00;99.90;;;;;;5063303;28;20199;-70
2023/04/04 05:23:21;;;;;;;4.40;4.00;;;1.00;99.90;;;;;;5063926;28;20264;-71
2023/04/04 05:25:52;;;;;;;6.20;4.50;;;1.10;99.90;;;;;;5054291;28;20413;-70
2023/04/04 05:28:20;;;;;;;7.57;5.70;;;1.00;99.90;;;;;;5062922;28;20426;-71
2023/04/04 05:30:46;;;;;;;5.13;4.73;;;1.10;99.90;;;;;;5050282;28;20450;-70
2023/04/04 05:33:12;;;;;;;8.27;5.13;;;1.00;99.90;;;;;;5056347;28;20585;-71
2023/04/04 05:35:37;;;;;;;8.60;5.80;;;1.10;99.90;;;;;;5060891;28;20619;-70
2023/04/04 05:38:03;;;;;;;9.83;6.00;;;1.20;99.90;;;;;;5047973;28;20816;-70
2023/04/04 05:40:29;;;;;;;7.37;6.47;;;1.20;99.90;;;;;;5053280;28;20250;-71
2023/04/04 05:42:59;;;;;;;10.00;7.43;;;1.30;99.90;;;;;;5063790;28;20244;-71
2023/04/04 05:45:25;;;;;;;7.60;5.83;;;1.40;99.90;;;;;;5063848;28;20171;-71
2023/04/04 05:47:51;;;;;;;8.30;6.57;;;1.40;99.90;;;;;;5062630;28;20418;-71
2023/04/04 05:50:17;;;;;;;7.20;6.47;;;1.40;99.90;;;;;;5062895;28;20490;-72
2023/04/04 05:52:45;;;;;;;9.77;7.00;;;1.30;99.90;;;;;;5055906;28;20621;-72
2023/04/04 05:55:10;;;;;;;6.70;6.00;;;1.30;99.90;;;;;;5063812;28;20419;-72
2023/04/04 05:57:36;;;;;;;6.90;5.70;;;1.40;99.90;;;;;;5062747;28;20421;-72
2023/04/04 06:00:04;;;;;;;82.23;52.50;;;1.50;99.90;;;;;;5050179;28;20919;-71
2023/04/04 06:02:31;;;;;;;6.63;5.93;;;1.50;99.90;;;;;;5042261;28;20199;-70
2023/04/04 06:04:56;;;;;;;6.50;5.87;;;1.50;99.90;;;;;;5064734;28;20791;-70
2023/04/04 06:07:22;;;;;;;6.40;5.43;;;1.60;99.90;;;;;;5045457;28;20419;-71
2023/04/04 06:09:47;;;;;;;10.50;7.00;;;1.70;99.90;;;;;;5061975;28;20269;-70
2023/04/04 06:12:13;;;;;;;7.07;6.37;;;1.80;99.90;;;;;;5062084;28;20213;-70
2023/04/04 06:14:39;;;;;;;7.30;5.50;;;1.90;99.90;;;;;;5045243;28;20668;-70
2023/04/04 06:17:05;;;;;;;5.40;4.63;;;1.90;99.90;;;;;;5059566;28;20181;-70
2023/04/04 06:19:31;;;;;;;10.40;7.33;;;1.90;99.90;;;;;;5052309;28;20187;-72
2023/04/04 06:21:56;;;;;;;11.47;8.27;;;1.90;99.90;;;;;;5045052;28;20456;-70
2023/04/04 06:24:22;;;;;;;9.83;8.67;;;2.00;99.90;;;;;;5045291;28;20283;-70
2023/04/04 06:26:50;;;;;;;10.40;7.43;;;2.10;99.90;;;;;;5045091;28;20345;-71
2023/04/04 06:29:17;;;;;;;10.20;8.47;;;2.00;99.90;;;;;;5044986;28;20670;-71
2023/04/04 06:31:42;;;;;;;8.37;5.80;;;2.00;99.90;;;;;;5048833;28;20540;-72
2023/04/04 06:34:08;;;;;;;5.97;5.47;;;1.90;99.90;;;;;;5060649;28;21018;-72
2023/04/04 06:36:34;;;;;;;9.17;7.57;;;2.00;99.90;;;;;;5053491;28;20184;-70
2023/04/04 06:39:00;;;;;;;8.37;6.97;;;2.20;99.90;;;;;;5059417;28;20228;-71
2023/04/04 06:41:26;;;;;;;8.13;5.77;;;2.30;99.90;;;;;;5061543;28;20261;-71
2023/04/04 06:43:51;;;;;;;10.93;5.13;;;2.00;99.90;;;;;;5049233;28;20431;-72
2023/04/04 06:46:17;;;;;;;10.57;6.40;;;2.10;99.90;;;;;;5050174;28;20198;-70
2023/04/04 06:48:43;;;;;;;7.80;7.00;;;2.30;99.90;;;;;;5055724;28;20195;-70
2023/04/04 06:51:10;;;;;;;13.27;6.53;;;2.50;99.90;;;;;;5050960;28;20184;-71
2023/04/04 06:53:36;;;;;;;10.53;5.23;;;2.40;99.90;;;;;;5044616;28;21043;-71
2023/04/04 06:56:02;;;;;;;5.43;4.43;;;2.50;99.90;;;;;;5044646;28;20424;-71
2023/04/04 06:58:27;;;;;;;10.33;6.47;;;2.80;99.90;;;;;;5045076;28;20785;-71
2023/04/04 07:00:55;;;;;;;10.90;6.63;;;2.90;99.90;;;;;;5049467;28;20466;-71
2023/04/04 07:03:22;;;;;;;8.83;6.40;;;3.00;99.90;;;;;;5054997;28;20947;-71
2023/04/04 07:05:48;;;;;;;5.47;4.10;;;3.00;99.90;;;;;;5046629;28;20420;-71
2023/04/04 07:08:13;;;;;;;5.17;3.87;;;3.10;99.90;;;;;;5061877;28;20852;-71
2023/04/04 07:10:39;;;;;;;6.60;3.77;;;3.20;99.90;;;;;;5060327;28;20180;-70
2023/04/04 07:13:04;;;;;;;4.73;3.80;;;3.20;99.90;;;;;;5053708;28;20288;-71
2023/04/04 07:15:30;;;;;;;5.90;4.53;;;3.10;99.90;;;;;;5048924;28;20194;-71
2023/04/04 07:17:56;;;;;;;4.23;3.40;;;2.90;99.90;;;;;;5059840;28;20181;-70
2023/04/04 07:20:22;;;;;;;5.60;4.00;;;3.10;99.90;;;;;;5048578;28;20786;-71
2023/04/04 07:22:48;;;;;;;6.93;3.77;;;3.20;99.90;;;;;;5060101;28;20928;-71
2023/04/04 07:25:14;;;;;;;4.53;3.20;;;3.40;99.90;;;;;;5051420;28;20485;-72
2023/04/04 07:27:39;;;;;;;3.17;2.97;;;3.50;99.70;;;;;;5051506;28;20416;-69
2023/04/04 07:30:06;;;;;;;3.87;3.47;;;3.50;99.50;;;;;;5048741;28;20773;-70
2023/04/04 07:32:32;;;;;;;3.97;3.53;;;3.70;99.20;;;;;;5065258;28;20307;-70
2023/04/04 07:34:57;;;;;;;5.07;3.80;;;3.60;98.90;;;;;;5050850;28;20510;-70
2023/04/04 07:37:25;;;;;;;3.80;3.37;;;3.40;98.90;;;;;;5048881;28;20181;-70
2023/04/04 07:39:51;;;;;;;7.53;3.77;;;3.50;98.90;;;;;;5079074;22;20221;-69
2023/04/04 07:42:21;;;;;;;5.40;3.10;;;3.60;99.10;;;;;;5048346;28;20416;-69
2023/04/04 07:44:50;;;;;;;3.97;3.23;;;3.40;99.30;;;;;;5048222;28;20831;-70
2023/04/04 07:47:16;;;;;;;6.00;3.53;;;3.60;99.20;;;;;;5048377;28;20443;-70
2023/04/04 07:49:43;;;;;;;4.77;4.10;;;3.80;98.80;;;;;;5043102;28;20433;-69
2023/04/04 07:52:08;;;;;;;5.10;3.20;;;3.90;98.40;;;;;;5045038;28;20944;-69
2023/04/04 07:54:35;;;;;;;4.23;3.63;;;3.90;98.20;;;;;;5038565;28;20417;-69
2023/04/04 07:57:00;;;;;;;4.67;3.90;;;3.90;98.10;;;;;;5041802;28;20205;-69
2023/04/04 07:59:26;;;;;;;3.83;3.43;;;4.10;97.70;;;;;;5039535;28;20433;-69
2023/04/04 08:01:52;;;;;;;5.83;4.23;;;4.20;98.30;;;;;;5039674;28;20202;-69
2023/04/04 08:04:17;;;;;;;6.50;3.60;;;4.30;97.80;;;;;;5028200;28;20217;-69
2023/04/04 08:06:43;;;;;;;7.03;4.37;;;4.10;97.50;;;;;;5037097;28;20728;-69
2023/04/04 08:09:08;;;;;;;4.33;3.33;;;4.20;97.50;;;;;;5038895;28;20324;-69
2023/04/04 08:11:35;;;;;;;3.27;3.07;;;4.30;97.50;;;;;;5028509;28;20247;-69
2023/04/04 08:14:01;;;;;;;4.40;4.00;;;4.30;96.90;;;;;;5035760;28;20189;-69
2023/04/04 08:16:26;;;;;;;4.17;3.40;;;4.10;96.90;;;;;;5046113;28;20920;-69
2023/04/04 08:18:52;;;;;;;4.53;3.47;;;4.30;97.20;;;;;;5040421;28;20270;-69
2023/04/04 08:21:18;;;;;;;3.43;2.60;;;4.40;97.10;;;;;;5040856;28;20205;-69
2023/04/04 08:23:44;;;;;;;4.20;3.40;;;4.40;97.10;;;;;;5034143;28;20631;-69
2023/04/04 08:26:10;;;;;;;4.33;3.80;;;4.40;97.20;;;;;;5032392;28;20453;-70
2023/04/04 08:28:37;;;;;;;7.03;3.80;;;4.60;97.00;;;;;;5028831;28;20425;-69
2023/04/04 08:31:03;;;;;;;8.63;4.73;;;4.70;96.80;;;;;;5041372;28;20445;-68
2023/04/04 08:33:28;;;;;;;4.30;3.30;;;4.70;96.20;;;;;;5038015;28;20436;-69
2023/04/04 08:35:56;;;;;;;4.23;3.47;;;4.70;96.50;;;;;;5032835;28;20224;-70
2023/04/04 08:38:22;;;;;;;7.70;3.87;;;4.80;96.20;;;;;;5035154;28;20424;-70
2023/04/04 08:40:48;;;;;;;4.10;3.10;;;4.90;96.00;;;;;;5032738;28;21011;-70
2023/04/04 08:43:15;;;;;;;4.40;4.00;;;5.00;95.80;;;;;;5030321;28;20183;-70
2023/04/04 08:45:43;;;;;;;5.57;3.20;;;4.80;95.20;;;;;;5036791;28;20413;-70
2023/04/04 08:48:11;;;;;;;8.70;3.83;;;4.90;95.20;;;;;;5027720;28;20825;-70
2023/04/04 08:50:41;;;;;;;4.10;3.70;;;5.00;95.20;;;;;;5040465;28;20459;-68
2023/04/04 08:53:09;;;;;;;7.03;4.13;;;5.00;94.80;;;;;;5037687;28;20421;-69
2023/04/04 08:55:35;;;;;;;4.43;3.93;;;5.20;94.80;;;;;;5035599;28;20427;-70
2023/04/04 08:58:01;;;;;;;5.70;3.50;;;5.30;94.80;;;;;;5041561;28;20500;-70
2023/04/04 09:00:26;;;;;;;4.17;3.60;;;5.30;94.00;;;;;;5030970;28;20568;-69
2023/04/04 09:02:59;;;;;;;8.50;4.70;;;5.00;94.10;;;;;;5043749;28;20847;-69
2023/04/04 09:05:25;;;;;;;5.67;4.00;;;5.10;94.40;;;;;;5039047;28;20206;-71
2023/04/04 09:07:53;;;;;;;4.80;3.43;;;5.20;94.20;;;;;;5037642;28;20441;-69
2023/04/04 09:10:19;;;;;;;4.60;3.77;;;5.30;93.70;;;;;;5038589;28;20433;-70
2023/04/04 09:12:47;;;;;;;5.47;3.53;;;5.30;93.70;;;;;;5038126;28;20417;-69
2023/04/04 09:15:13;;;;;;;3.93;3.37;;;5.40;93.50;;;;;;5034965;28;20460;-72
2023/04/04 09:17:39;;;;;;;4.27;3.73;;;5.40;93.90;;;;;;5045216;28;20444;-70
2023/04/04 09:20:34;;;;;;;3.80;3.50;;;5.40;93.60;;;;;;5039766;28;21011;-70
2023/04/04 09:23:00;;;;;;;4.00;3.60;;;5.80;93.10;;;;;;5045115;28;20413;-69
2023/04/04 09:25:25;;;;;;;3.93;3.30;;;5.70;92.20;;;;;;5037423;28;20428;-71
2023/04/04 09:27:56;;;;;;;3.50;3.27;;;5.80;92.20;;;;;;5037520;28;20409;-72
2023/04/04 09:30:22;;;;;;;4.87;3.93;;;6.10;91.90;;;;;;5037069;28;20207;-70
2023/04/04 09:32:48;;;;;;;3.83;3.50;;;6.00;91.30;;;;;;5028956;28;20963;-70
2023/04/04 09:35:14;;;;;;;3.57;3.27;;;6.10;91.50;;;;;;5031698;28;21046;-70
2023/04/04 09:37:41;;;;;;;5.90;3.67;;;6.00;91.90;;;;;;5035922;28;20642;-70
2023/04/04 09:40:10;;;;;;;3.97;3.57;;;5.80;91.10;;;;;;5027621;28;20472;-70
2023/04/04 09:42:36;;;;;;;7.87;3.63;;;6.00;91.40;;;;;;5037019;28;20564;-70
2023/04/04 09:45:02;;;;;;;4.03;3.37;;;6.00;90.90;;;;;;5037805;28;20940;-71
2023/04/04 09:47:29;;;;;;;5.37;3.60;;;6.20;90.30;;;;;;5039253;28;20171;-70
2023/04/04 09:49:59;;;;;;;4.40;4.00;;;6.10;90.70;;;;;;5036229;28;20440;-70
2023/04/04 09:52:25;;;;;;;8.77;4.80;;;6.10;90.70;;;;;;5035591;28;20408;-69
2023/04/04 09:54:58;;;;;;;4.13;3.50;;;6.40;90.10;;;;;;5029150;28;20841;-69
2023/04/04 09:57:31;;;;;;;4.33;3.00;;;6.30;90.00;;;;;;5038031;28;20405;-68
2023/04/04 10:00:02;;;;;;;10.13;4.00;;;6.10;89.20;;;;;;5027547;28;20595;-69
2023/04/04 10:02:32;;;;;;;3.67;3.33;;;5.90;89.30;;;;;;5029814;28;20425;-68
2023/04/04 10:04:58;;;;;;;3.57;3.27;;;6.30;90.00;;;;;;5034575;28;20964;-70
2023/04/04 10:07:27;;;;;;;6.10;3.10;;;6.50;89.30;;;;;;5033353;28;20470;-71
2023/04/04 10:09:53;;;;;;;4.00;3.50;;;6.60;88.40;;;;;;5055177;28;20465;-71
2023/04/04 10:12:24;;;;;;;4.63;3.53;;;6.80;89.50;;;;;;5046958;28;20440;-71
2023/04/04 10:15:00;;;;;;;4.30;3.90;;;6.80;88.40;;;;;;5040868;28;20221;-70
2023/04/04 10:17:39;;;;;;;4.70;4.20;;;6.70;88.70;;;;;;5040626;28;20408;-69
2023/04/04 10:20:07;;;;;;;4.40;3.60;;;6.50;87.70;;;;;;5039066;28;20753;-70
2023/04/04 10:22:35;;;;;;;7.57;4.27;;;6.40;88.30;;;;;;5041493;28;20405;-71
2023/04/04 10:25:01;;;;;;;4.37;3.97;;;6.60;89.10;;;;;;5035886;28;20428;-70
2023/04/04 10:27:27;;;;;;;7.83;4.10;;;6.50;88.10;;;;;;5040900;28;20474;-71
2023/04/04 10:29:53;;;;;;;7.20;4.27;;;6.70;88.90;;;;;;5036663;28;20444;-71
2023/04/04 10:32:29;;;;;;;4.27;3.33;;;6.40;87.50;;;;;;5039199;28;20227;-71
2023/04/04 10:35:02;;;;;;;7.93;5.30;;;6.60;88.40;;;;;;5031042;28;20458;-71
2023/04/04 10:37:33;;;;;;;6.73;3.50;;;6.90;86.00;;;;;;5037013;28;20956;-71
2023/04/04 10:40:05;;;;;;;5.57;4.00;;;7.10;87.20;;;;;;5030354;28;20553;-70
2023/04/04 10:42:40;;;;;;;5.70;3.50;;;7.10;85.40;;;;;;5032217;28;20475;-69
2023/04/04 10:45:08;;;;;;;6.57;3.40;;;7.30;85.30;;;;;;5025612;28;20464;-71
2023/04/04 10:47:35;;;;;;;3.60;3.30;;;7.60;86.10;;;;;;5025560;28;20415;-70
2023/04/04 10:50:05;;;;;;;4.17;3.30;;;7.80;82.70;;;;;;5027220;28;20479;-70
2023/04/04 10:52:31;;;;;;;4.00;3.57;;;8.50;81.20;;;;;;5029098;28;20445;-70
2023/04/04 10:55:04;;;;;;;4.40;3.30;;;9.70;78.20;;;;;;5028290;28;20414;-70
2023/04/04 10:57:32;;;;;;;3.30;2.77;;;10.40;75.00;;;;;;5035408;28;20466;-70
2023/04/04 11:00:07;;;;;;;4.13;3.73;;;10.70;72.40;;;;;;5024017;28;20528;-69
2023/04/04 11:02:56;;;;;;;4.30;3.90;;;10.90;70.60;;;;;;4996171;28;20452;-69
2023/04/04 11:05:33;;;;;;;5.17;3.10;;;11.40;69.10;;;;;;5014157;28;20422;-69
2023/04/04 11:08:05;;;;;;;4.83;3.40;;;11.60;68.30;;;;;;5014985;28;20432;-71
2023/04/04 11:10:34;;;;;;;6.13;3.77;;;11.00;66.30;;;;;;5016549;28;20934;-70
2023/04/04 11:13:09;;;;;;;3.57;3.00;;;11.20;66.40;;;;;;5032338;28;20427;-70
2023/04/04 11:15:59;;;;;;;6.27;3.73;;;13.20;63.30;;;;;;5021488;28;20952;-70
2023/04/04 11:18:31;;;;;;;3.37;2.83;;;12.30;58.80;;;;;;5016584;28;20433;-70
2023/04/04 11:21:00;;;;;;;3.50;3.10;;;12.30;59.50;;;;;;5019295;28;20462;-69
2023/04/04 11:23:27;;;;;;;5.40;4.07;;;12.70;58.80;;;;;;5021744;28;20425;-70
2023/04/04 11:25:54;;;;;;;5.67;3.27;;;13.20;59.70;;;;;;5013386;28;20416;-69
2023/04/04 11:28:42;;;;;;;5.80;3.77;;;14.20;57.10;;;;;;5033822;28;20426;-70
2023/04/04 11:31:17;;;;;;;5.80;3.50;;;14.10;55.00;;;;;;5024442;28;20984;-69
2023/04/04 11:33:56;;;;;;;4.13;3.27;;;14.10;55.40;;;;;;5015999;28;20705;-70
2023/04/04 11:36:37;;;;;;;3.30;2.90;;;15.60;53.00;;;;;;5028620;28;20789;-71
2023/04/04 11:39:28;;;;;;;4.13;2.83;;;15.10;51.90;;;;;;5013322;28;20775;-71
2023/04/04 11:42:05;;;;;;;3.80;3.23;;;13.90;53.40;;;;;;5012008;28;20474;-70
2023/04/04 11:44:33;;;;;;;6.20;4.30;;;13.10;54.20;;;;;;5027874;28;20790;-69
2023/04/04 11:47:09;;;;;;;3.87;3.40;;;12.00;53.70;;;;;;5005275;28;20663;-70
2023/04/04 11:49:42;;;;;;;5.53;3.80;;;11.30;55.70;;;;;;5028612;28;20478;-69
2023/04/04 11:52:12;;;;;;;5.33;3.30;;;12.00;56.50;;;;;;5035386;28;20430;-69
2023/04/04 11:54:39;;;;;;;3.80;3.50;;;12.10;55.60;;;;;;5030730;28;20561;-70
2023/04/04 11:57:07;;;;;;;4.67;3.43;;;11.40;55.30;;;;;;5021313;28;20512;-70
2023/04/04 11:59:33;;;;;;;4.50;3.20;;;12.50;55.50;;;;;;5021683;28;20485;-70
2023/04/04 12:02:01;;;;;;;3.67;3.37;;;13.70;54.00;;;;;;5012675;28;20469;-71
2023/04/04 12:04:27;;;;;;;3.50;3.20;;;14.00;53.10;;;;;;5024952;28;20447;-69
2023/04/04 12:06:55;;;;;;;4.27;3.07;;;14.60;51.50;;;;;;5034280;28;20971;-71
2023/04/04 12:09:24;;;;;;;3.83;3.37;;;16.10;51.30;;;;;;5031017;28;20210;-69
2023/04/04 12:11:50;;;;;;;5.50;3.90;;;14.80;50.10;;;;;;5038334;28;20512;-69
2023/04/04 12:14:17;;;;;;;4.13;3.13;;;14.40;50.00;;;;;;5021094;28;20444;-71
2023/04/04 12:16:43;;;;;;;3.90;3.47;;;14.20;50.90;;;;;;5010319;28;20436;-71
2023/04/04 12:19:10;;;;;;;3.90;3.40;;;15.70;49.80;;;;;;5025246;28;20425;-71
2023/04/04 12:21:36;;;;;;;3.57;3.23;;;17.30;47.30;;;;;;5009972;28;20458;-71
2023/04/04 12:24:02;;;;;;;4.50;3.27;;;15.30;45.50;;;;;;5033586;28;20465;-71
2023/04/04 12:26:28;;;;;;;3.10;2.80;;;13.70;48.50;;;;;;5030111;28;20619;-71
2023/04/04 12:28:56;;;;;;;3.20;2.70;;;15.10;48.20;;;;;;5015424;28;20777;-71
2023/04/04 12:31:24;;;;;;;4.20;3.33;;;16.10;46.50;;;;;;5040792;28;20431;-71
2023/04/04 12:33:50;;;;;;;6.50;2.80;;;15.80;49.00;;;;;;5023532;28;20425;-71
2023/04/04 12:36:16;;;;;;;4.30;3.23;;;16.60;46.10;;;;;;5024663;28;20425;-70
2023/04/04 12:38:57;;;;;;;4.27;3.40;;;16.90;46.10;;;;;;5025155;28;20827;-70
2023/04/04 12:41:23;;;;;;;5.60;4.17;;;16.70;44.80;;;;;;5024598;28;20472;-71
2023/04/04 12:43:48;;;;;;;4.20;3.00;;;18.00;44.20;;;;;;5029232;28;20500;-71
2023/04/04 12:46:14;;;;;;;6.20;3.57;;;17.80;43.70;;;;;;5021108;28;20278;-70
2023/04/04 12:48:40;;;;;;;3.93;3.53;;;18.50;42.60;;;;;;5024383;28;20183;-71
2023/04/04 12:51:07;;;;;;;3.50;3.20;;;17.30;44.30;;;;;;5024705;28;20211;-71
2023/04/04 12:53:34;;;;;;;3.57;3.27;;;16.60;44.60;;;;;;5030329;28;20524;-71
2023/04/04 12:56:02;;;;;;;4.97;3.00;;;15.80;44.50;;;;;;5024574;28;21021;-70
2023/04/04 12:58:28;;;;;;;4.60;3.47;;;14.60;46.70;;;;;;5008535;28;21019;-71